Time;durP1;ratioP1;P1;durP2;ratioP2;P2;SDS_P1;SDS_P2;PMS_P1;PMS_P2;Temp;Humidity;BMP_temperature;BMP_pressure;BME280_temperature;BME280_humidity;BME280_pressure;Samples;Min_cycle;Max_cycle;Signal;HPM_P1;HPM_P2
2022/02/12 00:02:18;;;;;;;4.57;1.50;;;;;;;;;;5074883;28;20028;-80
2022/02/12 00:04:44;;;;;;;4.18;1.50;;;;;;;;;;5073165;28;20049;-85
2022/02/12 00:07:10;;;;;;;3.38;1.50;;;;;;;;;;5074442;28;20100;-84
2022/02/12 00:09:36;;;;;;;4.70;1.50;;;;;;;;;;5073916;28;20098;-84
2022/02/12 00:12:04;;;;;;;4.05;1.20;;;;;;;;;;5072616;28;20499;-86
2022/02/12 00:14:30;;;;;;;3.97;1.35;;;;;;;;;;5072897;28;20048;-78
2022/02/12 00:16:57;;;;;;;5.50;1.70;;;;;;;;;;5072846;28;20032;-84
2022/02/12 00:19:23;;;;;;;4.68;1.50;;;;;;;;;;5072807;28;20453;-84
2022/02/12 00:21:49;;;;;;;4.72;1.23;;;;;;;;;;5073403;28;20025;-85
2022/02/12 00:24:16;;;;;;;3.72;1.50;;;;;;;;;;5073199;28;20028;-87
2022/02/12 00:26:42;;;;;;;5.00;1.55;;;;;;;;;;5075929;28;20100;-87
2022/02/12 00:29:08;;;;;;;5.57;1.52;;;;;;;;;;5094414;28;20568;-83
2022/02/12 00:31:34;;;;;;;6.85;1.70;;;;;;;;;;5076662;28;20059;-87
2022/02/12 00:34:00;;;;;;;4.60;1.50;;;;;;;;;;5073951;28;20031;-87
2022/02/12 00:36:27;;;;;;;4.70;1.70;;;;;;;;;;5073564;28;20530;-86
2022/02/12 00:38:53;;;;;;;5.28;1.65;;;;;;;;;;5073069;28;20037;-86
2022/02/12 00:41:19;;;;;;;3.63;1.40;;;;;;;;;;5072508;28;20388;-88
2022/02/12 00:43:46;;;;;;;5.53;1.60;;;;;;;;;;5073938;28;20098;-84
2022/02/12 00:46:12;;;;;;;4.15;1.80;;;;;;;;;;5072564;28;20031;-88
2022/02/12 00:48:38;;;;;;;2.70;1.55;;;;;;;;;;5074105;28;20036;-84
2022/02/12 00:51:04;;;;;;;3.60;1.45;;;;;;;;;;5074191;28;20024;-87
2022/02/12 00:53:31;;;;;;;5.00;1.88;;;;;;;;;;5072968;28;20036;-88
2022/02/12 00:55:57;;;;;;;4.32;1.73;;;;;;;;;;5072943;28;20025;-85
2022/02/12 00:58:23;;;;;;;6.30;1.63;;;;;;;;;;5072912;28;20071;-87
2022/02/12 01:00:50;;;;;;;4.63;1.70;;;;;;;;;;5074352;28;20055;-86
2022/02/12 01:03:16;;;;;;;3.92;1.42;;;;;;;;;;5072650;28;20021;-85
2022/02/12 01:05:42;;;;;;;3.95;1.77;;;;;;;;;;5072626;28;20170;-87
2022/02/12 01:08:08;;;;;;;4.63;2.10;;;;;;;;;;5072308;28;20040;-85
2022/02/12 01:10:35;;;;;;;2.70;1.40;;;;;;;;;;5073997;28;20530;-84
2022/02/12 01:13:02;;;;;;;3.28;1.60;;;;;;;;;;5072292;28;20098;-85
2022/02/12 01:15:28;;;;;;;4.07;1.63;;;;;;;;;;5073024;28;20028;-85
2022/02/12 01:17:55;;;;;;;4.70;1.80;;;;;;;;;;5072297;28;20035;-88
2022/02/12 01:20:21;;;;;;;3.67;1.60;;;;;;;;;;5072869;28;20024;-85
2022/02/12 01:22:48;;;;;;;5.63;2.10;;;;;;;;;;5072685;28;20025;-87
2022/02/12 01:25:15;;;;;;;2.75;1.50;;;;;;;;;;5072687;28;20123;-87
2022/02/12 01:27:41;;;;;;;6.97;2.33;;;;;;;;;;5072299;28;20469;-83
2022/02/12 01:30:08;;;;;;;3.97;1.80;;;;;;;;;;5073858;28;20359;-84
2022/02/12 01:32:34;;;;;;;6.45;2.15;;;;;;;;;;5076572;28;20025;-84
2022/02/12 01:35:00;;;;;;;2.85;1.70;;;;;;;;;;5075896;28;20028;-84
2022/02/12 01:37:27;;;;;;;3.88;2.08;;;;;;;;;;5077623;28;20063;-85
2022/02/12 01:39:53;;;;;;;5.63;2.30;;;;;;;;;;5076421;28;20032;-82
2022/02/12 01:42:19;;;;;;;4.50;2.25;;;;;;;;;;5075421;28;20020;-84
2022/02/12 01:44:46;;;;;;;3.45;1.80;;;;;;;;;;5075588;28;20028;-87
2022/02/12 01:47:13;;;;;;;4.82;2.00;;;;;;;;;;5077688;28;20028;-85
2022/02/12 01:49:40;;;;;;;6.28;2.47;;;;;;;;;;5076038;28;20058;-85
2022/02/12 01:52:07;;;;;;;2.95;1.73;;;;;;;;;;5077099;28;20042;-86
2022/02/12 01:54:33;;;;;;;6.07;2.00;;;;;;;;;;5075742;28;20055;-85
2022/02/12 01:57:03;;;;;;;4.03;2.08;;;;;;;;;;5075996;28;20032;-85
2022/02/12 01:59:30;;;;;;;6.43;2.70;;;;;;;;;;5077696;28;20032;-86
2022/02/12 02:01:57;;;;;;;4.35;2.10;;;;;;;;;;5075268;28;20020;-86
2022/02/12 02:04:23;;;;;;;6.07;2.28;;;;;;;;;;5076281;28;20052;-82
2022/02/12 02:06:50;;;;;;;3.17;1.80;;;;;;;;;;5075432;28;20021;-86
2022/02/12 02:09:17;;;;;;;6.28;2.10;;;;;;;;;;5077597;28;20111;-83
2022/02/12 02:11:43;;;;;;;10.90;2.20;;;;;;;;;;5075373;28;20077;-85
2022/02/12 02:14:13;;;;;;;5.90;2.20;;;;;;;;;;5074906;28;20025;-85
2022/02/12 02:16:40;;;;;;;4.80;2.20;;;;;;;;;;5076733;28;20028;-86
2022/02/12 02:19:07;;;;;;;4.07;1.95;;;;;;;;;;5075313;28;20040;-88
2022/02/12 02:21:35;;;;;;;4.65;2.38;;;;;;;;;;5076964;28;20074;-85
2022/02/12 02:24:01;;;;;;;6.88;2.28;;;;;;;;;;5075457;28;20033;-85
2022/02/12 02:26:27;;;;;;;4.30;1.80;;;;;;;;;;5075181;28;20092;-85
2022/02/12 02:28:53;;;;;;;4.53;2.22;;;;;;;;;;5075463;28;20429;-86
2022/02/12 02:31:20;;;;;;;6.90;2.15;;;;;;;;;;5075130;28;20056;-87
2022/02/12 02:33:46;;;;;;;10.32;2.88;;;;;;;;;;5077296;28;20077;-85
2022/02/12 02:36:14;;;;;;;3.75;2.00;;;;;;;;;;5075133;28;20461;-88
2022/02/12 02:38:40;;;;;;;4.68;2.30;;;;;;;;;;5075586;28;20029;-87
2022/02/12 02:41:06;;;;;;;4.90;2.08;;;;;;;;;;5075049;28;20069;-85
2022/02/12 02:43:32;;;;;;;3.50;1.80;;;;;;;;;;5074231;28;20111;-85
2022/02/12 02:45:59;;;;;;;4.35;2.10;;;;;;;;;;5074320;28;20024;-78
2022/02/12 02:48:25;;;;;;;4.13;2.10;;;;;;;;;;5075549;28;20028;-81
2022/02/12 02:56:21;;;;;;;6.00;2.30;;;;;;;;;;5075715;28;20039;-85
2022/02/12 02:58:49;;;;;;;5.65;2.70;;;;;;;;;;5075093;28;20028;-85
2022/02/12 03:01:20;;;;;;;7.88;2.60;;;;;;;;;;5075320;28;20052;-85
2022/02/12 03:03:47;;;;;;;5.35;2.10;;;;;;;;;;5096512;28;20029;-79
2022/02/12 03:06:14;;;;;;;6.22;2.33;;;;;;;;;;5082041;28;20031;-85
2022/02/12 03:08:41;;;;;;;5.38;2.35;;;;;;;;;;5076580;28;20035;-87
2022/02/12 03:11:07;;;;;;;4.70;2.17;;;;;;;;;;5074601;28;20556;-87
2022/02/12 03:13:34;;;;;;;5.45;2.42;;;;;;;;;;5074741;28;20385;-85
2022/02/12 03:16:01;;;;;;;8.05;2.75;;;;;;;;;;5074154;28;20025;-88
2022/02/12 03:18:27;;;;;;;6.82;2.60;;;;;;;;;;5073867;28;20040;-86
2022/02/12 03:20:53;;;;;;;7.05;2.95;;;;;;;;;;5074282;28;20032;-86
2022/02/12 03:23:19;;;;;;;5.15;2.60;;;;;;;;;;5075144;28;20035;-84
2022/02/12 03:25:45;;;;;;;4.82;2.63;;;;;;;;;;5073525;28;20025;-86
2022/02/12 03:28:12;;;;;;;5.07;2.55;;;;;;;;;;5073209;28;20029;-89
2022/02/12 03:30:39;;;;;;;4.65;2.80;;;;;;;;;;5075098;28;20043;-85
2022/02/12 03:33:06;;;;;;;8.02;2.80;;;;;;;;;;5073750;28;20121;-86
2022/02/12 03:35:33;;;;;;;4.78;2.65;;;;;;;;;;5073674;28;20060;-88
2022/02/12 03:38:08;;;;;;;8.98;2.88;;;;;;;;;;5073958;28;20401;-86
2022/02/12 03:40:35;;;;;;;6.03;2.47;;;;;;;;;;5073558;28;20017;-86
2022/02/12 03:43:02;;;;;;;4.35;2.20;;;;;;;;;;5073555;28;20055;-88
2022/02/12 03:45:28;;;;;;;7.55;2.60;;;;;;;;;;5073332;28;20034;-83
2022/02/12 03:47:54;;;;;;;9.80;2.72;;;;;;;;;;5073750;28;20028;-84
2022/02/12 03:50:21;;;;;;;5.05;2.13;;;;;;;;;;5073630;28;20066;-89
2022/02/12 03:52:49;;;;;;;7.28;2.90;;;;;;;;;;5074351;28;20552;-83
2022/02/12 03:55:16;;;;;;;7.20;2.90;;;;;;;;;;5072650;28;20017;-86
2022/02/12 03:57:42;;;;;;;5.50;2.70;;;;;;;;;;5075069;28;20032;-86
2022/02/12 04:00:11;;;;;;;5.55;3.03;;;;;;;;;;5073319;28;20029;-84
2022/02/12 04:02:37;;;;;;;5.82;2.50;;;;;;;;;;5073150;28;20119;-86
2022/02/12 04:05:04;;;;;;;5.13;2.55;;;;;;;;;;5074340;28;20045;-86
2022/02/12 04:07:31;;;;;;;7.05;2.63;;;;;;;;;;5073815;28;20029;-88
2022/02/12 04:09:57;;;;;;;4.50;2.25;;;;;;;;;;5072942;28;20036;-85
2022/02/12 04:12:23;;;;;;;4.53;2.47;;;;;;;;;;5073257;28;20438;-85
2022/02/12 04:14:49;;;;;;;3.17;1.75;;;;;;;;;;5073316;28;20046;-85
2022/02/12 04:17:16;;;;;;;6.53;2.35;;;;;;;;;;5073217;28;20024;-83
2022/02/12 04:19:42;;;;;;;4.95;2.30;;;;;;;;;;5073553;28;20032;-88
2022/02/12 04:22:08;;;;;;;5.72;2.28;;;;;;;;;;5074224;28;20070;-85
2022/02/12 04:24:34;;;;;;;4.50;2.28;;;;;;;;;;5072985;28;20432;-85
2022/02/12 04:27:00;;;;;;;3.90;1.95;;;;;;;;;;5073379;28;20111;-83
2022/02/12 04:29:26;;;;;;;5.38;2.20;;;;;;;;;;5074368;28;20055;-85
2022/02/12 04:31:53;;;;;;;5.57;2.33;;;;;;;;;;5073296;28;20057;-87
2022/02/12 04:34:19;;;;;;;5.13;2.05;;;;;;;;;;5072470;28;20473;-85
2022/02/12 04:36:45;;;;;;;5.25;2.20;;;;;;;;;;5073306;28;20366;-85
2022/02/12 04:39:12;;;;;;;6.30;2.15;;;;;;;;;;5073273;28;20037;-88
2022/02/12 04:41:38;;;;;;;4.15;2.38;;;;;;;;;;5072637;28;20024;-86
2022/02/12 04:44:04;;;;;;;3.22;1.80;;;;;;;;;;5072748;28;20033;-85
2022/02/12 04:46:31;;;;;;;3.88;1.80;;;;;;;;;;5072864;28;20028;-83
2022/02/12 04:48:57;;;;;;;3.55;1.95;;;;;;;;;;5074330;28;20024;-85
2022/02/12 04:51:24;;;;;;;4.45;2.08;;;;;;;;;;5073750;28;20070;-87
2022/02/12 04:53:51;;;;;;;5.90;2.40;;;;;;;;;;5072675;28;20115;-86
2022/02/12 04:56:18;;;;;;;5.35;2.33;;;;;;;;;;5072760;28;20472;-85
2022/02/12 04:58:44;;;;;;;6.50;3.00;;;;;;;;;;5073943;28;20426;-85
2022/02/12 05:01:20;;;;;;;8.25;3.60;;;;;;;;;;5072883;28;20021;-85
2022/02/12 05:03:49;;;;;;;15.55;4.28;;;;;;;;;;5074142;28;20074;-85
2022/02/12 05:06:16;;;;;;;9.60;4.40;;;;;;;;;;5075360;28;20108;-86
2022/02/12 05:08:43;;;;;;;12.52;4.75;;;;;;;;;;5076280;28;20032;-85
2022/02/12 05:11:09;;;;;;;6.50;3.47;;;;;;;;;;5076841;28;20069;-84
2022/02/12 05:13:35;;;;;;;8.85;3.40;;;;;;;;;;5076643;28;20074;-85
2022/02/12 05:16:01;;;;;;;14.15;4.22;;;;;;;;;;5078632;28;20118;-84
2022/02/12 05:18:27;;;;;;;12.55;4.57;;;;;;;;;;5076528;28;20036;-87
2022/02/12 05:20:54;;;;;;;10.95;3.45;;;;;;;;;;5076541;28;20477;-85
2022/02/12 05:23:20;;;;;;;8.52;4.10;;;;;;;;;;5076702;28;20056;-86
2022/02/12 05:25:46;;;;;;;8.32;3.70;;;;;;;;;;5076490;28;20552;-88
2022/02/12 05:28:12;;;;;;;8.93;3.75;;;;;;;;;;5078331;28;20024;-84
2022/02/12 05:30:40;;;;;;;8.48;4.13;;;;;;;;;;5076462;28;20032;-86
2022/02/12 05:33:07;;;;;;;10.15;4.35;;;;;;;;;;5076536;28;20027;-83
2022/02/12 05:35:33;;;;;;;10.40;4.40;;;;;;;;;;5078325;28;20392;-82
2022/02/12 05:37:59;;;;;;;8.38;4.40;;;;;;;;;;5079629;28;20032;-85
2022/02/12 05:40:26;;;;;;;19.40;4.38;;;;;;;;;;5090628;28;20017;-84
2022/02/12 05:42:52;;;;;;;10.63;4.57;;;;;;;;;;5083997;28;20025;-89
2022/02/12 05:45:18;;;;;;;8.52;4.30;;;;;;;;;;5078937;28;20347;-83
2022/02/12 05:47:44;;;;;;;10.55;4.63;;;;;;;;;;5076214;28;20024;-85
2022/02/12 05:50:10;;;;;;;11.38;4.65;;;;;;;;;;5077855;28;20107;-87
2022/02/12 05:52:37;;;;;;;8.82;4.43;;;;;;;;;;5077256;28;20043;-86
2022/02/12 05:55:03;;;;;;;9.68;4.22;;;;;;;;;;5076259;28;20025;-91
2022/02/12 05:57:30;;;;;;;8.00;4.07;;;;;;;;;;5077850;28;20039;-86
2022/02/12 05:59:56;;;;;;;11.38;4.72;;;;;;;;;;5075666;28;20032;-85
2022/02/12 06:02:22;;;;;;;10.20;5.03;;;;;;;;;;5075885;28;20024;-85
2022/02/12 06:04:48;;;;;;;13.00;4.30;;;;;;;;;;5075876;28;20045;-86
2022/02/12 06:07:14;;;;;;;13.23;4.38;;;;;;;;;;5075976;28;20040;-83
2022/02/12 06:09:41;;;;;;;9.95;5.07;;;;;;;;;;5076747;28;20031;-93
2022/02/12 06:12:07;;;;;;;12.55;5.13;;;;;;;;;;5076504;28;20021;-86
2022/02/12 06:14:33;;;;;;;11.50;5.35;;;;;;;;;;5075971;28;20040;-91
2022/02/12 06:17:00;;;;;;;11.85;4.82;;;;;;;;;;5074409;28;20098;-85
2022/02/12 06:19:26;;;;;;;12.63;5.07;;;;;;;;;;5071602;28;20047;-84
2022/02/12 06:21:53;;;;;;;8.15;4.80;;;;;;;;;;5074650;28;20024;-85
2022/02/12 06:24:19;;;;;;;14.07;6.03;;;;;;;;;;5073682;28;20104;-84
2022/02/12 06:26:56;;;;;;;13.32;5.40;;;;;;;;;;5074922;28;20116;-87
2022/02/12 06:29:22;;;;;;;13.93;5.38;;;;;;;;;;5075396;28;20115;-85
2022/02/12 06:31:48;;;;;;;11.93;5.45;;;;;;;;;;5074729;28;20078;-83
2022/02/12 06:34:15;;;;;;;10.60;4.90;;;;;;;;;;5075123;28;20036;-86
2022/02/12 06:36:41;;;;;;;14.25;6.50;;;;;;;;;;5077110;28;20030;-85
2022/02/12 07:54:03;;;;;;;2.33;1.35;;;;;;;;;;4934703;24;20059;-89
2022/02/12 07:56:32;;;;;;;3.35;1.67;;;;;;;;;;4787858;29;20063;-88
2022/02/12 07:58:59;;;;;;;3.80;1.70;;;;;;;;;;4788110;29;20552;-88
2022/02/12 08:01:25;;;;;;;3.00;1.42;;;;;;;;;;4788087;29;20088;-87
2022/02/12 08:03:51;;;;;;;6.00;1.70;;;;;;;;;;4787927;29;20027;-88
2022/02/12 08:09:02;;;;;;;3.13;1.48;;;;;;;;;;4789764;30;20562;-90
2022/02/12 08:11:35;;;;;;;3.42;1.45;;;;;;;;;;4788044;29;20027;-90
2022/02/12 08:14:01;;;;;;;4.35;1.70;;;;;;;;;;4788405;29;20036;-90
2022/02/12 08:16:27;;;;;;;2.80;1.20;;;;;;;;;;4788505;29;20040;-89
2022/02/12 08:18:53;;;;;;;8.20;1.83;;;;;;;;;;4788188;29;20390;-90
2022/02/12 08:21:19;;;;;;;3.65;1.52;;;;;;;;;;4788367;29;20034;-92
2022/02/12 08:23:45;;;;;;;2.92;1.30;;;;;;;;;;4788577;29;20031;-90
2022/02/12 08:26:11;;;;;;;4.57;1.70;;;;;;;;;;4788817;29;20481;-90
2022/02/12 08:28:38;;;;;;;4.55;1.70;;;;;;;;;;4788430;29;20039;-88
2022/02/12 08:31:04;;;;;;;3.28;1.73;;;;;;;;;;4788920;29;20031;-88
2022/02/12 08:33:30;;;;;;;3.90;1.83;;;;;;;;;;4788524;29;20039;-89
2022/02/12 08:35:56;;;;;;;2.88;1.70;;;;;;;;;;4788188;29;20473;-92
2022/02/12 08:38:23;;;;;;;4.50;1.90;;;;;;;;;;4788773;29;20043;-91
2022/02/12 08:40:49;;;;;;;4.45;1.88;;;;;;;;;;4789067;29;20031;-90
2022/02/12 08:43:15;;;;;;;3.50;1.88;;;;;;;;;;4804886;29;20042;-90
2022/02/12 08:45:41;;;;;;;4.18;2.25;;;;;;;;;;4805404;29;20011;-88
2022/02/12 08:51:01;;;;;;;4.82;1.90;;;;;;;;;;4790668;30;20184;-89
2022/02/12 08:53:27;;;;;;;5.43;2.28;;;;;;;;;;4787812;29;20055;-90
2022/02/12 08:55:53;;;;;;;5.22;2.13;;;;;;;;;;4788528;29;20032;-89
2022/02/12 08:58:20;;;;;;;6.22;1.95;;;;;;;;;;4787815;29;20439;-88
2022/02/12 09:00:46;;;;;;;3.25;1.83;;;;;;;;;;4788057;29;20039;-89
2022/02/12 09:03:12;;;;;;;3.83;2.03;;;;;;;;;;4788504;29;20027;-91
2022/02/12 09:05:38;;;;;;;4.65;1.95;;;;;;;;;;4788705;29;20032;-88
2022/02/12 09:08:04;;;;;;;3.30;1.85;;;;;;;;;;4787968;29;20042;-90
2022/02/12 09:10:30;;;;;;;4.07;1.67;;;;;;;;;;4789216;29;20039;-90
2022/02/12 09:12:57;;;;;;;3.88;2.20;;;;;;;;;;4788074;29;20079;-90
2022/02/12 09:15:23;;;;;;;3.72;2.03;;;;;;;;;;4788042;29;20106;-92
2022/02/12 09:17:49;;;;;;;4.90;2.13;;;;;;;;;;4788123;30;20050;-92
2022/02/12 09:20:15;;;;;;;4.07;2.00;;;;;;;;;;4788590;29;20034;-92
2022/02/12 09:22:41;;;;;;;4.05;2.22;;;;;;;;;;4787924;29;20172;-91
2022/02/12 09:25:08;;;;;;;5.30;2.83;;;;;;;;;;4790328;29;20461;-90
2022/02/12 09:27:46;;;;;;;5.38;2.22;;;;;;;;;;4789206;29;20089;-91
2022/02/12 09:30:12;;;;;;;4.32;2.28;;;;;;;;;;4788679;29;20038;-90
2022/02/12 09:32:38;;;;;;;4.38;2.20;;;;;;;;;;4788322;29;20092;-90
2022/02/12 09:35:05;;;;;;;4.43;2.53;;;;;;;;;;4787933;29;20027;-90
2022/02/12 09:37:31;;;;;;;5.20;2.22;;;;;;;;;;4788017;29;20036;-92
2022/02/12 09:39:57;;;;;;;4.63;2.42;;;;;;;;;;4789043;29;20138;-91
2022/02/12 09:42:26;;;;;;;5.28;2.53;;;;;;;;;;4788113;29;20489;-91
2022/02/12 09:44:53;;;;;;;4.20;2.20;;;;;;;;;;4788356;29;20092;-90
2022/02/12 09:47:38;;;;;;;6.78;3.38;;;;;;;;;;4788523;29;20048;-89
2022/02/12 09:50:06;;;;;;;5.18;2.90;;;;;;;;;;4788403;29;20115;-91
2022/02/12 09:52:33;;;;;;;4.32;2.30;;;;;;;;;;4788957;29;20035;-90
2022/02/12 09:55:00;;;;;;;4.03;2.10;;;;;;;;;;4791926;29;20134;-88
2022/02/12 09:57:26;;;;;;;5.65;2.95;;;;;;;;;;4792085;29;20036;-90
2022/02/12 10:00:04;;;;;;;6.53;2.38;;;;;;;;;;4790984;29;20059;-88
2022/02/12 10:02:30;;;;;;;4.90;2.40;;;;;;;;;;4791160;29;20035;-88
2022/02/12 10:05:15;;;;;;;7.05;2.65;;;;;;;;;;4791857;29;20039;-88
2022/02/12 10:07:41;;;;;;;5.82;2.75;;;;;;;;;;4790829;29;20027;-89
2022/02/12 10:10:14;;;;;;;5.63;2.35;;;;;;;;;;4790644;29;20096;-88
2022/02/12 10:12:40;;;;;;;;;;;;;;;;;;4790721;29;20035;-88
2022/02/12 10:15:26;;;;;;;6.13;2.55;;;;;;;;;;4790668;29;20000;-88
2022/02/12 10:17:53;;;;;;;5.55;2.90;;;;;;;;;;4790476;29;20047;-88
2022/02/12 10:20:23;;;;;;;4.80;1.80;;;;;;;;;;4791491;29;20032;-90
2022/02/12 10:25:25;;;;;;;7.00;2.70;;;;;;;;;;4942535;24;20062;-92
2022/02/12 10:27:51;;;;;;;4.53;2.60;;;;;;;;;;4826564;29;20377;-89
2022/02/12 10:30:18;;;;;;;3.22;1.98;;;;;;;;;;4827654;29;20026;-90
2022/02/12 10:32:45;;;;;;;3.75;1.67;;;;;;;;;;4826763;29;20044;-91
2022/02/12 10:35:11;;;;;;;3.92;1.67;;;;;;;;;;4841239;29;20082;-83
2022/02/12 10:37:42;;;;;;;3.97;1.45;;;;;;;;;;4846903;29;20042;-88
2022/02/12 10:40:08;;;;;;;3.35;1.88;;;;;;;;;;4834702;29;20404;-88
2022/02/12 10:42:43;;;;;;;4.78;2.20;;;;;;;;;;4827391;29;20407;-89
2022/02/12 10:45:17;;;;;;;6.13;2.90;;;;;;;;;;4826679;29;20493;-88
2022/02/12 10:47:43;;;;;;;;;;;;;;;;;;4827531;29;20027;-89
2022/02/12 10:50:10;;;;;;;4.00;2.20;;;;;;;;;;4827055;29;19932;-89
2022/02/12 10:52:45;;;;;;;5.65;3.30;;;;;;;;;;4825895;29;20045;-89
2022/02/12 10:55:30;;;;;;;6.63;3.72;;;;;;;;;;4826016;29;20042;-88
2022/02/12 10:58:06;;;;;;;5.93;3.45;;;;;;;;;;4825623;29;20034;-88
2022/02/12 11:00:34;;;;;;;7.53;3.65;;;;;;;;;;4826104;29;20106;-88
2022/02/12 11:03:04;;;;;;;10.95;4.68;;;;;;;;;;4825135;29;20033;-88
2022/02/12 11:05:32;;;;;;;5.32;3.10;;;;;;;;;;4825956;29;20053;-89
2022/02/12 11:07:58;;;;;;;5.05;2.90;;;;;;;;;;4825558;29;20034;-89
2022/02/12 11:10:24;;;;;;;5.07;2.70;;;;;;;;;;4826711;29;20110;-91
2022/02/12 11:12:52;;;;;;;8.88;3.40;;;;;;;;;;4826029;29;20026;-90
2022/02/12 11:15:18;;;;;;;5.28;2.95;;;;;;;;;;4824710;29;20086;-90
2022/02/12 11:17:46;;;;;;;4.03;2.15;;;;;;;;;;4825472;29;20037;-90
2022/02/12 11:20:13;;;;;;;3.60;1.75;;;;;;;;;;4825841;29;20041;-90
2022/02/12 11:22:40;;;;;;;4.78;2.25;;;;;;;;;;4827395;29;20038;-87
2022/02/12 11:25:26;;;;;;;4.72;2.40;;;;;;;;;;4826437;29;20058;-92
2022/02/12 11:28:09;;;;;;;5.20;2.47;;;;;;;;;;4816167;29;20039;-86
2022/02/12 11:30:37;;;;;;;5.30;2.92;;;;;;;;;;4824984;29;20061;-86
2022/02/12 11:33:08;;;;;;;12.25;3.08;;;;;;;;;;4825002;29;20066;-88
2022/02/12 11:35:34;;;;;;;9.25;3.60;;;;;;;;;;4826572;29;20110;-87
2022/02/12 11:38:00;;;;;;;5.72;3.38;;;;;;;;;;4826865;29;20038;-89
2022/02/12 11:40:28;;;;;;;6.03;2.80;;;;;;;;;;4825172;29;20075;-88
2022/02/12 11:42:58;;;;;;;5.60;3.17;;;;;;;;;;4825179;29;20098;-89
2022/02/12 11:45:45;;;;;;;7.25;3.78;;;;;;;;;;4825384;29;20026;-88
2022/02/12 11:48:17;;;;;;;6.80;3.55;;;;;;;;;;4825279;29;20433;-88
2022/02/12 11:50:48;;;;;;;7.18;3.72;;;;;;;;;;4825295;29;20037;-88
2022/02/12 11:53:33;;;;;;;6.75;3.33;;;;;;;;;;4825908;29;20110;-87
2022/02/12 11:56:04;;;;;;;8.50;3.47;;;;;;;;;;4826079;29;20038;-87
2022/02/12 11:58:42;;;;;;;5.68;3.92;;;;;;;;;;4825207;29;20486;-86
2022/02/12 12:01:32;;;;;;;7.38;4.10;;;;;;;;;;4826093;29;20037;-91
2022/02/12 12:04:11;;;;;;;5.57;3.15;;;;;;;;;;4825037;29;20122;-90
2022/02/12 12:06:38;;;;;;;5.60;3.63;;;;;;;;;;4826010;29;20451;-93
2022/02/12 12:09:08;;;;;;;7.82;3.72;;;;;;;;;;4825574;29;20038;-91
2022/02/12 12:11:35;;;;;;;7.85;3.45;;;;;;;;;;4826417;29;20517;-90
2022/02/12 12:14:20;;;;;;;5.95;3.53;;;;;;;;;;4824464;29;20396;-86
2022/02/12 12:16:52;;;;;;;6.20;2.63;;;;;;;;;;4824702;29;20480;-90
2022/02/12 12:19:20;;;;;;;4.93;2.83;;;;;;;;;;4824648;29;20046;-89
2022/02/12 12:21:46;;;;;;;4.65;2.70;;;;;;;;;;4824577;29;20479;-89
2022/02/12 12:24:19;;;;;;;4.38;2.58;;;;;;;;;;4825819;29;20054;-87
2022/02/12 12:26:47;;;;;;;4.88;2.28;;;;;;;;;;4837733;29;20026;-87
2022/02/12 12:32:00;;;;;;;4.20;2.45;;;;;;;;;;4828468;29;20540;-87
2022/02/12 12:34:26;;;;;;;3.85;2.20;;;;;;;;;;4825359;29;20069;-91
2022/02/12 12:36:56;;;;;;;4.90;2.63;;;;;;;;;;4824446;29;20035;-91
2022/02/12 12:39:30;;;;;;;5.78;2.60;;;;;;;;;;4824563;29;20065;-88
2022/02/12 12:41:56;;;;;;;5.57;2.25;;;;;;;;;;4824212;29;20034;-90
2022/02/12 12:44:27;;;;;;;4.78;2.42;;;;;;;;;;4824324;29;20213;-91
2022/02/12 12:46:54;;;;;;;4.55;2.40;;;;;;;;;;4824428;29;20031;-87
2022/02/12 12:49:33;;;;;;;4.72;2.30;;;;;;;;;;4824531;29;20094;-91
2022/02/12 12:52:02;;;;;;;5.03;2.40;;;;;;;;;;4824048;29;20034;-88
2022/02/12 12:54:31;;;;;;;5.65;2.50;;;;;;;;;;4824170;29;20027;-89
2022/02/12 12:56:59;;;;;;;8.27;2.60;;;;;;;;;;4824245;29;20446;-90
2022/02/12 12:59:26;;;;;;;5.35;2.40;;;;;;;;;;4823995;29;20129;-90
2022/02/12 13:01:56;;;;;;;4.18;2.00;;;;;;;;;;4824108;29;20047;-89
2022/02/12 13:04:22;;;;;;;3.97;2.30;;;;;;;;;;4824087;29;20498;-90
2022/02/12 13:06:52;;;;;;;6.40;2.80;;;;;;;;;;4823945;29;20026;-91
2022/02/12 13:09:19;;;;;;;6.05;2.58;;;;;;;;;;4823954;29;20117;-89
2022/02/12 13:11:45;;;;;;;4.28;2.45;;;;;;;;;;4823928;29;20061;-90
2022/02/12 13:14:12;;;;;;;5.65;2.80;;;;;;;;;;4824540;29;20137;-91
2022/02/12 13:16:39;;;;;;;4.30;2.45;;;;;;;;;;4823999;29;20480;-89
2022/02/12 13:19:12;;;;;;;5.88;2.45;;;;;;;;;;4824078;29;20038;-90
2022/02/12 13:21:38;;;;;;;5.40;2.97;;;;;;;;;;4823669;29;20034;-91
2022/02/12 13:24:05;;;;;;;4.65;2.72;;;;;;;;;;4823639;29;20535;-92
2022/02/12 13:26:31;;;;;;;4.78;2.60;;;;;;;;;;4824782;29;20083;-89
2022/02/12 13:28:58;;;;;;;5.72;2.55;;;;;;;;;;4827183;29;20476;-92
2022/02/12 13:31:26;;;;;;;5.90;2.75;;;;;;;;;;4827437;29;20045;-89
2022/02/12 13:33:59;;;;;;;3.03;1.75;;;;;;;;;;4827099;29;20126;-90
2022/02/12 13:36:25;;;;;;;4.03;2.28;;;;;;;;;;4827128;29;20530;-90
2022/02/12 13:38:51;;;;;;;5.28;2.58;;;;;;;;;;4826882;29;20049;-90
2022/02/12 13:44:04;;;;;;;4.55;2.55;;;;;;;;;;4828334;29;20137;-90
2022/02/12 13:46:34;;;;;;;6.05;2.60;;;;;;;;;;4827029;29;20030;-89
2022/02/12 13:49:13;;;;;;;6.30;2.55;;;;;;;;;;4827321;29;20064;-90
2022/02/12 13:51:49;;;;;;;7.47;3.03;;;;;;;;;;4826874;29;20026;-88
2022/02/12 13:54:15;;;;;;;6.22;3.25;;;;;;;;;;4827970;29;20612;-90
2022/02/12 13:56:42;;;;;;;5.20;2.72;;;;;;;;;;4826713;29;20038;-89
2022/02/12 13:59:08;;;;;;;5.30;2.50;;;;;;;;;;4826626;29;20039;-90
2022/02/12 14:01:34;;;;;;;4.95;2.70;;;;;;;;;;4827395;29;20103;-90
2022/02/12 14:04:00;;;;;;;4.60;2.33;;;;;;;;;;4827077;29;20507;-90
2022/02/12 14:06:26;;;;;;;3.45;2.15;;;;;;;;;;4826549;29;20098;-90
2022/02/12 14:08:52;;;;;;;6.97;3.03;;;;;;;;;;4826814;29;20030;-89
2022/02/12 14:11:20;;;;;;;6.00;2.83;;;;;;;;;;4828243;29;20031;-89
2022/02/12 14:13:47;;;;;;;4.68;2.55;;;;;;;;;;4836043;29;20014;-89
2022/02/12 14:16:13;;;;;;;4.88;2.75;;;;;;;;;;4843859;29;20027;-87
2022/02/12 14:18:39;;;;;;;5.78;2.15;;;;;;;;;;4829937;29;20042;-89
2022/02/12 14:21:07;;;;;;;8.30;2.42;;;;;;;;;;4826243;29;20038;-87
2022/02/12 14:23:33;;;;;;;4.47;2.47;;;;;;;;;;4826174;29;20034;-88
2022/02/12 14:25:59;;;;;;;4.65;2.65;;;;;;;;;;4827533;29;20061;-89
2022/02/12 14:28:25;;;;;;;5.57;3.17;;;;;;;;;;4826193;29;20034;-88
2022/02/12 14:30:51;;;;;;;6.78;3.38;;;;;;;;;;4831949;29;20037;-89
2022/02/12 14:33:18;;;;;;;5.82;2.67;;;;;;;;;;4834946;29;20038;-89
2022/02/12 14:35:49;;;;;;;6.15;2.78;;;;;;;;;;4828010;29;20034;-90
2022/02/12 14:38:19;;;;;;;7.22;3.13;;;;;;;;;;4827312;29;20038;-89
2022/02/12 14:40:45;;;;;;;5.75;2.70;;;;;;;;;;4826692;29;20045;-89
2022/02/12 14:43:12;;;;;;;5.13;2.42;;;;;;;;;;4825981;29;20040;-90
2022/02/12 14:45:38;;;;;;;6.82;2.88;;;;;;;;;;4825912;29;20031;-88
2022/02/12 14:48:04;;;;;;;5.28;2.78;;;;;;;;;;4825821;29;20129;-91
2022/02/12 14:50:31;;;;;;;5.97;2.65;;;;;;;;;;4827104;29;20468;-90
2022/02/12 14:52:57;;;;;;;5.47;2.58;;;;;;;;;;4825931;29;20038;-91
2022/02/12 14:55:24;;;;;;;5.47;2.75;;;;;;;;;;4825928;29;20031;-90
2022/02/12 14:57:50;;;;;;;5.68;2.63;;;;;;;;;;4825652;29;20038;-90
2022/02/12 15:00:19;;;;;;;4.13;2.53;;;;;;;;;;4825732;29;20034;-89
2022/02/12 15:02:45;;;;;;;4.43;2.60;;;;;;;;;;4825727;29;20030;-89
2022/02/12 15:05:11;;;;;;;7.50;2.85;;;;;;;;;;4825514;29;20034;-88
2022/02/12 15:07:39;;;;;;;5.82;3.08;;;;;;;;;;4825477;29;20062;-89
2022/02/12 15:10:06;;;;;;;5.38;2.45;;;;;;;;;;4825574;29;20392;-89
2022/02/12 15:12:33;;;;;;;7.00;3.05;;;;;;;;;;4826023;29;20030;-93
2022/02/12 15:14:59;;;;;;;5.22;2.35;;;;;;;;;;4826995;29;20033;-89
2022/02/12 15:17:26;;;;;;;5.63;2.85;;;;;;;;;;4825433;29;20130;-90
2022/02/12 15:19:55;;;;;;;5.68;2.60;;;;;;;;;;4825566;29;20505;-91
2022/02/12 15:22:23;;;;;;;8.73;3.08;;;;;;;;;;4825634;29;20028;-91
2022/02/12 15:24:49;;;;;;;6.03;2.53;;;;;;;;;;4825555;29;20054;-90
2022/02/12 15:27:15;;;;;;;5.75;2.90;;;;;;;;;;4825601;29;20030;-91
2022/02/12 15:29:41;;;;;;;5.55;2.63;;;;;;;;;;4825355;29;20037;-90
2022/02/12 15:32:08;;;;;;;6.32;2.90;;;;;;;;;;4825495;29;20046;-91
2022/02/12 15:34:37;;;;;;;7.93;3.05;;;;;;;;;;4825352;29;20035;-94
2022/02/12 15:37:04;;;;;;;7.53;3.30;;;;;;;;;;4825285;29;20058;-91
2022/02/12 15:39:30;;;;;;;6.40;3.05;;;;;;;;;;4825252;29;20045;-91
2022/02/12 15:41:56;;;;;;;11.18;3.83;;;;;;;;;;4825187;29;20038;-91
2022/02/12 15:44:25;;;;;;;6.47;3.28;;;;;;;;;;4825420;29;20042;-90
2022/02/12 15:46:52;;;;;;;14.45;4.72;;;;;;;;;;4825985;29;20026;-91
2022/02/12 15:49:19;;;;;;;14.50;5.72;;;;;;;;;;4825165;29;20087;-90
2022/02/12 15:51:45;;;;;;;17.20;7.30;;;;;;;;;;4824975;29;20037;-91
2022/02/12 15:54:12;;;;;;;39.40;15.75;;;;;;;;;;4825494;29;20042;-89
2022/02/12 15:56:38;;;;;;;14.90;6.85;;;;;;;;;;4825169;29;20434;-90
2022/02/12 15:59:05;;;;;;;35.78;17.25;;;;;;;;;;4826523;29;20053;-91
2022/02/12 16:01:32;;;;;;;64.47;30.65;;;;;;;;;;4843299;29;20090;-89
2022/02/12 16:03:58;;;;;;;207.63;74.55;;;;;;;;;;4839465;29;20038;-90
2022/02/12 16:06:24;;;;;;;106.32;47.35;;;;;;;;;;4827961;29;20034;-90
2022/02/12 16:08:50;;;;;;;37.05;19.88;;;;;;;;;;4825819;29;20034;-91
2022/02/12 16:11:17;;;;;;;30.40;16.17;;;;;;;;;;4825084;29;20027;-91
2022/02/12 16:13:43;;;;;;;16.15;9.70;;;;;;;;;;4825119;29;20495;-90
2022/02/12 16:16:09;;;;;;;21.70;11.45;;;;;;;;;;4825011;29;20117;-91
2022/02/12 16:18:36;;;;;;;20.52;11.25;;;;;;;;;;4824761;29;20042;-90